Time;durP1;ratioP1;P1;durP2;ratioP2;P2;SDS_P1;SDS_P2;PMS_P1;PMS_P2;Temp;Humidity;BMP_temperature;BMP_pressure;BME280_temperature;BME280_humidity;BME280_pressure;Samples;Min_cycle;Max_cycle;Signal;HPM_P1;HPM_P2
2022/07/23 00:00:44;;;;;;;;;;;16.30;99.90;;;;;;5050788;28;19921;-73
2022/07/23 00:03:10;;;;;;;;;;;16.30;99.90;;;;;;5053942;28;19963;-73
2022/07/23 00:05:35;;;;;;;;;;;16.20;99.90;;;;;;5060812;28;19921;-74
2022/07/23 00:08:01;;;;;;;;;;;16.20;99.90;;;;;;5054004;28;20496;-73
2022/07/23 00:10:26;;;;;;;;;;;16.20;99.90;;;;;;5060393;28;20176;-73
2022/07/23 00:12:52;;;;;;;;;;;16.10;99.90;;;;;;5050524;28;19925;-74
2022/07/23 00:15:18;;;;;;;;;;;16.00;99.90;;;;;;5060390;28;19988;-73
2022/07/23 00:17:43;;;;;;;;;;;16.00;99.90;;;;;;5060917;28;20010;-74
2022/07/23 00:20:09;;;;;;;;;;;16.00;99.90;;;;;;5060132;28;20307;-73
2022/07/23 00:22:34;;;;;;;;;;;16.00;99.90;;;;;;5050097;28;19940;-74
2022/07/23 00:25:00;;;;;;;;;;;16.00;99.90;;;;;;5050450;28;20016;-74
2022/07/23 00:27:25;;;;;;;;;;;16.00;99.90;;;;;;5050080;28;19928;-74
2022/07/23 00:29:51;;;;;;;;;;;15.90;99.90;;;;;;5059689;28;19920;-73
2022/07/23 00:32:16;;;;;;;;;;;15.90;99.90;;;;;;5067295;28;19920;-73
2022/07/23 00:34:42;;;;;;;;;;;15.90;99.90;;;;;;5060356;28;19920;-73
2022/07/23 00:37:08;;;;;;;;;;;15.90;99.90;;;;;;5057215;28;19931;-74
2022/07/23 00:39:33;;;;;;;;;;;15.90;99.90;;;;;;5048046;28;19921;-73
2022/07/23 00:41:59;;;;;;;;;;;15.90;99.90;;;;;;5053302;28;20015;-73
2022/07/23 00:44:25;;;;;;;;;;;15.90;99.90;;;;;;5049391;28;19975;-73
2022/07/23 00:46:53;;;;;;;;;;;15.90;99.90;;;;;;5049415;28;19927;-73
2022/07/23 00:49:22;;;;;;;;;;;15.90;99.90;;;;;;5048755;28;19924;-73
2022/07/23 00:51:48;;;;;;;;;;;15.90;99.90;;;;;;5049704;28;19921;-73
2022/07/23 00:54:15;;;;;;;;;;;15.90;99.90;;;;;;5049205;28;19999;-74
2022/07/23 00:56:42;;;;;;;;;;;15.90;99.90;;;;;;5058524;28;20008;-74
2022/07/23 00:59:08;;;;;;;;;;;15.80;99.90;;;;;;5055379;28;19982;-74
2022/07/23 01:01:33;;;;;;;;;;;15.80;99.90;;;;;;5061014;28;20003;-74
2022/07/23 01:03:59;;;;;;;;;;;15.70;99.90;;;;;;5051862;28;19999;-73
2022/07/23 01:06:24;;;;;;;;;;;15.70;99.90;;;;;;5068205;28;20225;-74
2022/07/23 01:08:50;;;;;;;;;;;15.70;99.90;;;;;;5066338;28;19963;-73
2022/07/23 01:11:17;;;;;;;;;;;15.70;99.90;;;;;;5057115;28;19929;-74
2022/07/23 01:13:43;;;;;;;;;;;15.60;99.90;;;;;;5049555;28;19920;-73
2022/07/23 01:16:08;;;;;;;;;;;15.60;99.90;;;;;;5048579;28;20707;-73
2022/07/23 01:18:34;;;;;;;;;;;15.60;99.90;;;;;;5049995;28;19960;-74
2022/07/23 01:20:59;;;;;;;;;;;15.50;99.90;;;;;;5050060;28;20519;-73
2022/07/23 01:23:25;;;;;;;;;;;15.50;99.90;;;;;;5050012;28;19920;-74
2022/07/23 01:25:54;;;;;;;;;;;15.50;99.90;;;;;;5049819;28;19982;-74
2022/07/23 01:28:20;;;;;;;;;;;15.40;99.90;;;;;;5049635;28;19947;-73
2022/07/23 01:30:46;;;;;;;;;;;15.40;99.90;;;;;;5049948;28;20267;-74
2022/07/23 01:33:11;;;;;;;;;;;15.30;99.90;;;;;;5050253;28;19928;-74
2022/07/23 01:35:37;;;;;;;;;;;15.30;99.90;;;;;;5049236;28;19921;-73
2022/07/23 01:38:02;;;;;;;;;;;15.20;99.90;;;;;;5049825;28;19943;-74
2022/07/23 01:40:28;;;;;;;;;;;15.20;99.90;;;;;;5049856;28;19944;-73
2022/07/23 01:42:54;;;;;;;;;;;15.20;99.90;;;;;;5050425;28;19927;-74
2022/07/23 01:45:19;;;;;;;;;;;15.20;99.90;;;;;;5051045;28;20007;-73
2022/07/23 01:47:45;;;;;;;;;;;15.20;99.90;;;;;;5049400;28;19967;-73
2022/07/23 01:50:11;;;;;;;;;;;15.20;99.90;;;;;;5049193;28;20497;-74
2022/07/23 01:52:36;;;;;;;;;;;15.20;99.90;;;;;;5049647;28;20003;-73
2022/07/23 01:55:02;;;;;;;;;;;15.20;99.90;;;;;;5047520;28;19921;-74
2022/07/23 01:57:28;;;;;;;;;;;15.10;99.90;;;;;;5056820;28;20287;-73
2022/07/23 01:59:53;;;;;;;;;;;15.10;99.90;;;;;;5055842;28;19920;-74
2022/07/23 02:02:19;;;;;;;;;;;15.10;99.90;;;;;;5061930;28;19924;-73
2022/07/23 02:04:44;;;;;;;;;;;15.20;99.90;;;;;;5048859;28;19932;-73
2022/07/23 02:07:10;;;;;;;;;;;15.20;99.90;;;;;;5049503;28;19921;-73
2022/07/23 02:09:35;;;;;;;;;;;15.20;99.90;;;;;;5047775;28;19921;-73
2022/07/23 02:12:01;;;;;;;;;;;15.20;99.90;;;;;;5050032;28;19927;-74
2022/07/23 02:14:27;;;;;;;;;;;15.20;99.90;;;;;;5066118;28;19924;-74
2022/07/23 02:16:52;;;;;;;;;;;15.30;99.90;;;;;;5064578;28;19925;-73
2022/07/23 02:19:18;;;;;;;;;;;15.20;99.90;;;;;;5052054;28;19928;-74
2022/07/23 02:21:43;;;;;;;;;;;15.20;99.90;;;;;;5071930;28;19927;-73
2022/07/23 02:24:09;;;;;;;;;;;15.20;99.90;;;;;;5070897;28;20035;-74
2022/07/23 02:26:34;;;;;;;;;;;15.20;99.90;;;;;;5039003;28;20404;-74
2022/07/23 02:29:01;;;;;;;;;;;15.20;99.90;;;;;;5051232;28;19924;-74
2022/07/23 02:31:28;;;;;;;;;;;15.20;99.90;;;;;;5052315;28;20020;-73
2022/07/23 02:33:53;;;;;;;;;;;15.20;99.90;;;;;;5052103;28;19920;-73
2022/07/23 02:36:19;;;;;;;;;;;15.30;99.90;;;;;;5052948;28;19967;-73
2022/07/23 02:38:45;;;;;;;;;;;15.30;99.90;;;;;;5052013;28;19994;-73
2022/07/23 02:41:10;;;;;;;;;;;15.30;99.90;;;;;;5052956;28;20329;-74
2022/07/23 02:43:35;;;;;;;;;;;15.40;99.90;;;;;;5051471;28;19921;-74
2022/07/23 02:46:01;;;;;;;;;;;15.50;99.90;;;;;;5052371;28;20483;-73
2022/07/23 02:48:26;;;;;;;;;;;15.50;99.90;;;;;;5052564;28;19974;-73
2022/07/23 02:50:52;;;;;;;;;;;15.50;99.90;;;;;;5051650;28;20602;-74
2022/07/23 02:53:18;;;;;;;;;;;15.50;99.90;;;;;;5052342;28;19925;-74
2022/07/23 02:55:43;;;;;;;;;;;15.50;99.90;;;;;;5052643;28;19920;-73
2022/07/23 02:58:09;;;;;;;;;;;15.50;99.90;;;;;;5052373;28;20015;-73
2022/07/23 03:00:34;;;;;;;;;;;15.50;99.90;;;;;;5039164;28;19921;-73
2022/07/23 03:03:00;;;;;;;;;;;15.50;99.90;;;;;;5051939;28;19920;-73
2022/07/23 03:05:25;;;;;;;;;;;15.60;99.90;;;;;;5038123;28;19928;-74
2022/07/23 03:07:51;;;;;;;;;;;15.60;99.90;;;;;;5065333;28;20434;-73
2022/07/23 03:10:16;;;;;;;;;;;15.60;99.90;;;;;;5052003;28;19921;-73
2022/07/23 03:12:42;;;;;;;;;;;15.60;99.90;;;;;;5051198;28;19993;-74
2022/07/23 03:15:08;;;;;;;;;;;15.60;99.90;;;;;;5051900;28;19925;-74
2022/07/23 03:17:33;;;;;;;;;;;15.60;99.90;;;;;;5051615;28;19967;-73
2022/07/23 03:19:58;;;;;;;;;;;15.60;99.90;;;;;;5064595;28;19928;-74
2022/07/23 03:22:24;;;;;;;;;;;15.60;99.90;;;;;;5064778;28;19927;-74
2022/07/23 03:24:55;;;;;;;;;;;15.60;99.90;;;;;;5070591;28;20294;-74
2022/07/23 03:27:22;;;;;;;;;;;15.50;99.90;;;;;;5057978;28;19928;-73
2022/07/23 03:29:47;;;;;;;;;;;15.50;99.90;;;;;;5045296;28;19927;-73
2022/07/23 03:32:13;;;;;;;;;;;15.50;99.90;;;;;;5056304;28;19921;-73
2022/07/23 03:34:38;;;;;;;;;;;15.50;99.90;;;;;;5057698;28;19924;-73
2022/07/23 03:37:04;;;;;;;;;;;15.50;99.90;;;;;;5070186;28;19927;-73
2022/07/23 03:39:29;;;;;;;;;;;15.50;99.90;;;;;;5069782;28;19920;-74
2022/07/23 03:41:55;;;;;;;;;;;15.50;99.90;;;;;;5069542;28;19921;-74
2022/07/23 03:44:21;;;;;;;;;;;15.50;99.90;;;;;;5051379;28;20015;-74
2022/07/23 03:46:46;;;;;;;;;;;15.50;99.90;;;;;;5051432;28;20003;-73
2022/07/23 03:49:12;;;;;;;;;;;15.50;99.90;;;;;;5050862;28;20383;-74
2022/07/23 03:51:37;;;;;;;;;;;15.50;99.90;;;;;;5049863;28;19921;-73
2022/07/23 03:54:03;;;;;;;;;;;15.50;99.90;;;;;;5050745;28;19921;-74
2022/07/23 03:56:28;;;;;;;;;;;15.50;99.90;;;;;;5051948;28;19925;-74
2022/07/23 03:58:54;;;;;;;;;;;15.50;99.90;;;;;;5050859;28;19944;-73
2022/07/23 04:01:19;;;;;;;;;;;15.50;99.90;;;;;;5051590;28;20444;-73
2022/07/23 04:03:46;;;;;;;;;;;15.50;99.90;;;;;;5051158;28;19924;-73
2022/07/23 04:06:11;;;;;;;;;;;15.50;99.90;;;;;;5050841;28;19932;-73
2022/07/23 04:08:37;;;;;;;;;;;15.50;99.90;;;;;;5051354;28;19927;-73
2022/07/23 04:11:02;;;;;;;;;;;15.50;99.90;;;;;;5051276;28;19927;-74
2022/07/23 04:13:28;;;;;;;;;;;15.50;99.90;;;;;;5050772;28;19974;-73
2022/07/23 04:15:53;;;;;;;;;;;15.50;99.90;;;;;;5050784;28;19921;-73
2022/07/23 04:18:21;;;;;;;;;;;15.40;99.90;;;;;;5051240;28;19921;-73
2022/07/23 04:20:47;;;;;;;;;;;15.40;99.90;;;;;;5050896;28;19928;-73
2022/07/23 04:23:12;;;;;;;;;;;15.40;99.90;;;;;;5050917;28;20322;-73
2022/07/23 04:25:38;;;;;;;;;;;15.40;99.90;;;;;;5050842;28;19927;-73
2022/07/23 04:28:03;;;;;;;;;;;15.40;99.90;;;;;;5050152;28;19920;-73
2022/07/23 04:30:29;;;;;;;;;;;15.40;99.90;;;;;;5050619;28;19946;-73
2022/07/23 04:32:55;;;;;;;;;;;15.40;99.90;;;;;;5050492;28;19921;-74
2022/07/23 04:35:20;;;;;;;;;;;15.40;99.90;;;;;;5050164;28;19950;-73
2022/07/23 04:37:46;;;;;;;;;;;15.40;99.90;;;;;;5050550;28;20007;-73
2022/07/23 04:40:12;;;;;;;;;;;15.30;99.90;;;;;;5050818;28;19924;-74
2022/07/23 04:42:37;;;;;;;;;;;15.40;99.90;;;;;;5050479;28;20450;-74
2022/07/23 04:45:03;;;;;;;;;;;15.40;99.90;;;;;;5050709;28;20039;-73
2022/07/23 04:47:30;;;;;;;;;;;15.40;99.90;;;;;;5050238;28;20410;-74
2022/07/23 04:49:56;;;;;;;;;;;15.40;99.90;;;;;;5050135;28;19921;-73
2022/07/23 04:52:21;;;;;;;;;;;15.40;99.90;;;;;;5068327;28;19927;-73
2022/07/23 04:54:47;;;;;;;;;;;15.40;99.90;;;;;;5055834;28;20007;-74
2022/07/23 04:57:12;;;;;;;;;;;15.50;99.90;;;;;;5055729;28;19932;-73
2022/07/23 04:59:38;;;;;;;;;;;15.50;99.90;;;;;;5057188;28;20303;-73
2022/07/23 05:02:03;;;;;;;;;;;15.50;99.90;;;;;;5048717;28;20417;-74
2022/07/23 05:04:29;;;;;;;;;;;15.50;99.90;;;;;;5062001;28;19920;-73
2022/07/23 05:06:54;;;;;;;;;;;15.50;99.90;;;;;;5050209;28;19921;-73
2022/07/23 05:09:20;;;;;;;;;;;15.50;99.90;;;;;;5061561;28;19920;-73
2022/07/23 05:11:45;;;;;;;;;;;15.50;99.90;;;;;;5050843;28;20460;-74
2022/07/23 05:14:12;;;;;;;;;;;15.60;99.90;;;;;;5049630;28;19967;-74
2022/07/23 05:16:38;;;;;;;;;;;15.60;99.90;;;;;;5049799;28;19920;-73
2022/07/23 05:19:03;;;;;;;;;;;15.60;99.90;;;;;;5049560;28;19920;-73
2022/07/23 05:21:29;;;;;;;;;;;15.70;99.90;;;;;;5049860;28;19924;-74
2022/07/23 05:23:54;;;;;;;;;;;15.70;99.90;;;;;;5049929;28;20379;-73
2022/07/23 05:26:20;;;;;;;;;;;15.70;99.90;;;;;;5049510;28;20268;-73
2022/07/23 05:28:45;;;;;;;;;;;15.80;99.90;;;;;;5049839;28;19928;-73
2022/07/23 05:31:11;;;;;;;;;;;15.80;99.90;;;;;;5049356;28;19920;-73
2022/07/23 05:33:36;;;;;;;;;;;15.90;99.90;;;;;;5049865;28;19920;-73
2022/07/23 05:36:02;;;;;;;;;;;15.90;99.90;;;;;;5054882;28;19920;-73
2022/07/23 05:38:28;;;;;;;;;;;15.90;99.90;;;;;;5055763;28;19928;-73
2022/07/23 05:40:54;;;;;;;;;;;16.00;99.90;;;;;;5049199;28;20008;-74
2022/07/23 05:43:19;;;;;;;;;;;16.00;99.90;;;;;;5049705;28;20350;-74
2022/07/23 05:45:45;;;;;;;;;;;16.10;99.90;;;;;;5049199;28;20422;-73
2022/07/23 05:48:10;;;;;;;;;;;16.10;99.90;;;;;;5064057;28;19931;-73
2022/07/23 05:50:36;;;;;;;;;;;16.20;99.90;;;;;;5055592;28;19925;-74
2022/07/23 05:53:02;;;;;;;;;;;16.20;99.90;;;;;;5053527;28;19921;-74
2022/07/23 05:55:28;;;;;;;;;;;16.20;99.90;;;;;;5070948;28;20360;-73
2022/07/23 05:57:55;;;;;;;;;;;16.30;99.90;;;;;;5071824;28;19977;-73
2022/07/23 06:00:20;;;;;;;;;;;16.40;99.90;;;;;;5059711;28;20001;-73
2022/07/23 06:02:46;;;;;;;;;;;16.40;99.90;;;;;;5073060;28;20009;-73
2022/07/23 06:05:11;;;;;;;;;;;16.60;99.90;;;;;;5072787;28;19920;-73
2022/07/23 06:07:37;;;;;;;;;;;16.60;99.90;;;;;;5072942;28;19927;-73
2022/07/23 06:10:03;;;;;;;;;;;16.60;99.90;;;;;;5072293;28;20003;-73
2022/07/23 06:12:29;;;;;;;;;;;16.70;99.90;;;;;;5061541;28;20021;-73
2022/07/23 06:14:55;;;;;;;;;;;16.80;99.90;;;;;;5070340;28;19986;-73
2022/07/23 06:17:20;;;;;;;;;;;16.80;99.90;;;;;;5072525;28;19924;-73
2022/07/23 06:19:46;;;;;;;;;;;16.80;99.90;;;;;;5054845;28;19921;-73
2022/07/23 06:22:11;;;;;;;;;;;16.90;99.90;;;;;;5052960;28;19943;-73
2022/07/23 06:24:37;;;;;;;;;;;17.00;99.90;;;;;;5066071;28;20018;-73
2022/07/23 06:27:03;;;;;;;;;;;17.10;99.90;;;;;;5052774;28;19924;-74
2022/07/23 06:29:28;;;;;;;;;;;17.10;99.90;;;;;;5064938;28;20389;-73
2022/07/23 06:31:53;;;;;;;;;;;17.20;99.90;;;;;;5063362;28;19920;-73
2022/07/23 06:34:19;;;;;;;;;;;17.30;99.90;;;;;;5058810;28;19920;-73
2022/07/23 06:36:45;;;;;;;;;;;17.30;99.90;;;;;;5061587;28;19928;-73
2022/07/23 06:39:10;;;;;;;;;;;17.40;99.90;;;;;;5052195;28;19921;-73
2022/07/23 06:41:36;;;;;;;;;;;17.40;99.90;;;;;;5063416;28;19920;-74
2022/07/23 06:44:02;;;;;;;;;;;17.40;99.90;;;;;;5071697;28;19920;-73
2022/07/23 06:46:27;;;;;;;;;;;17.50;99.90;;;;;;5061697;28;19921;-73
2022/07/23 06:48:53;;;;;;;;;;;17.50;99.90;;;;;;5052533;28;19920;-73
2022/07/23 06:51:18;;;;;;;;;;;17.50;99.90;;;;;;5052513;28;19920;-73
2022/07/23 06:53:44;;;;;;;;;;;17.60;99.90;;;;;;5051928;28;20104;-73
2022/07/23 06:56:09;;;;;;;;;;;17.60;99.90;;;;;;5052308;28;19925;-73
2022/07/23 06:58:35;;;;;;;;;;;17.60;99.90;;;;;;5051978;28;19974;-73
2022/07/23 07:01:00;;;;;;;;;;;17.60;99.90;;;;;;5052651;28;19935;-74
2022/07/23 07:03:26;;;;;;;;;;;17.60;99.90;;;;;;5053305;28;19921;-74
2022/07/23 07:05:52;;;;;;;;;;;17.60;99.90;;;;;;5052715;28;19920;-73
2022/07/23 07:08:18;;;;;;;;;;;17.60;99.90;;;;;;5051647;28;19920;-73
2022/07/23 07:10:46;;;;;;;;;;;17.50;99.90;;;;;;5052236;28;20294;-74
2022/07/23 07:13:12;;;;;;;;;;;17.40;99.90;;;;;;5050881;28;19947;-74
2022/07/23 07:15:38;;;;;;;;;;;17.40;99.90;;;;;;5050187;28;20309;-73
2022/07/23 07:18:03;;;;;;;;;;;17.40;99.90;;;;;;5051931;28;19920;-73
2022/07/23 07:20:29;;;;;;;;;;;17.30;99.90;;;;;;5043875;28;19952;-74
2022/07/23 07:22:54;;;;;;;;;;;17.30;99.90;;;;;;5050050;28;19943;-74
2022/07/23 07:25:20;;;;;;;;;;;17.30;99.90;;;;;;5050453;28;20375;-74
2022/07/23 07:27:45;;;;;;;;;;;17.30;99.90;;;;;;5050648;28;20433;-74
2022/07/23 07:30:11;;;;;;;;;;;17.30;99.90;;;;;;5051067;28;19931;-74
2022/07/23 07:32:37;;;;;;;;;;;17.30;99.90;;;;;;5050186;28;19936;-74
2022/07/23 07:35:03;;;;;;;;;;;17.40;99.90;;;;;;5050354;28;19928;-73
2022/07/23 07:37:29;;;;;;;;;;;17.40;99.90;;;;;;5049041;28;19928;-73
2022/07/23 07:39:55;;;;;;;;;;;17.40;99.90;;;;;;5050173;28;19929;-74
2022/07/23 07:42:20;;;;;;;;;;;17.50;99.90;;;;;;5050174;28;19921;-73
2022/07/23 07:44:46;;;;;;;;;;;17.50;99.90;;;;;;5050410;28;19921;-74
2022/07/23 07:47:11;;;;;;;;;;;17.60;99.90;;;;;;5049971;28;19969;-74
2022/07/23 07:49:37;;;;;;;;;;;17.70;99.90;;;;;;5049887;28;19920;-75
2022/07/23 07:52:03;;;;;;;;;;;17.90;99.90;;;;;;5049948;28;19921;-75
2022/07/23 07:54:28;;;;;;;;;;;18.00;99.90;;;;;;5050150;28;19925;-75
2022/07/23 07:56:54;;;;;;;;;;;18.20;99.90;;;;;;5050063;28;19995;-75
2022/07/23 07:59:19;;;;;;;;;;;18.30;99.90;;;;;;5051155;28;19927;-74
2022/07/23 08:01:45;;;;;;;;;;;18.50;99.90;;;;;;5051321;28;20008;-72
2022/07/23 08:04:10;;;;;;;;;;;18.70;99.90;;;;;;5051477;28;19921;-72
2022/07/23 08:06:36;;;;;;;;;;;18.80;99.90;;;;;;5051073;28;20306;-72
2022/07/23 08:09:01;;;;;;;;;;;18.90;99.90;;;;;;5049910;28;20306;-72
2022/07/23 08:11:27;;;;;;;;;;;19.20;99.90;;;;;;5049179;28;19971;-72
2022/07/23 08:13:52;;;;;;;;;;;19.30;99.90;;;;;;5058473;28;20009;-73
2022/07/23 08:16:18;;;;;;;;;;;19.40;99.90;;;;;;5054666;28;19920;-73
2022/07/23 08:18:43;;;;;;;;;;;19.40;99.90;;;;;;5050488;28;20484;-73
2022/07/23 08:21:09;;;;;;;;;;;19.30;99.90;;;;;;5049029;28;19928;-73
2022/07/23 08:23:35;;;;;;;;;;;19.30;99.90;;;;;;5050818;28;19967;-73
2022/07/23 08:26:00;;;;;;;;;;;19.30;99.90;;;;;;5043971;28;20018;-73
2022/07/23 08:28:26;;;;;;;;;;;19.30;99.90;;;;;;5050703;28;20294;-73
2022/07/23 08:30:52;;;;;;;;;;;19.30;99.90;;;;;;5050108;28;20000;-73
2022/07/23 08:33:17;;;;;;;;;;;19.30;99.90;;;;;;5049911;28;19928;-73
2022/07/23 08:35:47;;;;;;;;;;;19.40;99.90;;;;;;5049772;28;20310;-72
2022/07/23 08:38:14;;;;;;;;;;;19.50;99.90;;;;;;5050277;28;19948;-74
2022/07/23 08:40:44;;;;;;;;;;;19.60;99.90;;;;;;5048740;28;19994;-73
2022/07/23 08:43:18;;;;;;;;;;;19.70;99.90;;;;;;5053975;28;20452;-72
2022/07/23 08:45:45;;;;;;;;;;;19.80;99.40;;;;;;5057143;28;20040;-73
2022/07/23 08:48:12;;;;;;;;;;;20.00;99.90;;;;;;5047052;28;20023;-73
2022/07/23 08:50:37;;;;;;;;;;;20.10;99.70;;;;;;5052262;28;19925;-74
2022/07/23 08:53:07;;;;;;;;;;;20.20;98.80;;;;;;5045602;28;20331;-73
2022/07/23 08:55:33;;;;;;;;;;;20.30;99.00;;;;;;5048945;28;20289;-73
2022/07/23 08:57:58;;;;;;;;;;;20.30;98.60;;;;;;5052681;28;19924;-73
2022/07/23 09:00:24;;;;;;;;;;;20.30;98.50;;;;;;5051149;28;19921;-72
2022/07/23 09:02:50;;;;;;;;;;;20.20;98.80;;;;;;5045179;28;19924;-73
2022/07/23 09:05:16;;;;;;;;;;;20.20;98.80;;;;;;5048977;28;19943;-73
2022/07/23 09:08:00;;;;;;;;;;;20.10;98.90;;;;;;5056047;28;19920;-74
2022/07/23 09:10:26;;;;;;;;;;;20.20;99.20;;;;;;5044969;28;19982;-72
2022/07/23 09:12:51;;;;;;;;;;;20.20;98.60;;;;;;5049513;28;20420;-73
2022/07/23 09:15:17;;;;;;;;;;;20.30;97.70;;;;;;5044391;28;19921;-72
2022/07/23 09:17:42;;;;;;;;;;;20.30;97.40;;;;;;5056965;28;19966;-74
2022/07/23 09:20:09;;;;;;;;;;;20.30;96.30;;;;;;5057649;28;19921;-73
2022/07/23 09:22:35;;;;;;;;;;;20.30;97.20;;;;;;5054492;28;19924;-73
2022/07/23 09:25:10;;;;;;;;;;;20.40;96.90;;;;;;5042840;28;20418;-73
2022/07/23 09:27:46;;;;;;;;;;;20.40;97.20;;;;;;5049999;28;19921;-73
2022/07/23 09:30:12;;;;;;;;;;;20.40;96.00;;;;;;5049507;28;19956;-74
2022/07/23 09:32:38;;;;;;;;;;;20.50;96.70;;;;;;5048985;28;19970;-73
2022/07/23 09:35:04;;;;;;;;;;;20.50;95.70;;;;;;5056540;28;19927;-73
2022/07/23 09:37:29;;;;;;;;;;;20.70;96.20;;;;;;5042828;28;19921;-72
2022/07/23 09:40:02;;;;;;;;;;;21.20;95.20;;;;;;5055700;28;19966;-72
2022/07/23 09:42:28;;;;;;;;;;;21.40;94.70;;;;;;5042441;28;19927;-73
2022/07/23 09:44:55;;;;;;;;;;;21.50;94.80;;;;;;5047821;28;19921;-72
2022/07/23 09:47:21;;;;;;;;;;;21.60;93.20;;;;;;5048810;28;19943;-73
2022/07/23 09:50:00;;;;;;;;;;;21.90;94.50;;;;;;5047742;28;19921;-73
2022/07/23 09:52:27;;;;;;;;;;;22.20;93.30;;;;;;5037857;28;19921;-73
2022/07/23 09:54:57;;;;;;;;;;;22.20;92.90;;;;;;5046730;28;19927;-73
2022/07/23 09:57:23;;;;;;;;;;;22.10;93.10;;;;;;5044770;28;19937;-73
2022/07/23 09:59:50;;;;;;;;;;;22.00;92.30;;;;;;5048515;28;19921;-73
2022/07/23 10:02:16;;;;;;;;;;;21.80;92.10;;;;;;5048876;28;19935;-73
2022/07/23 10:04:42;;;;;;;;;;;21.60;93.70;;;;;;5048011;28;20780;-73
2022/07/23 10:07:09;;;;;;;;;;;21.40;93.20;;;;;;5047261;28;19975;-73
2022/07/23 10:09:36;;;;;;;;;;;21.60;94.30;;;;;;5038862;28;20387;-73
2022/07/23 10:12:30;;;;;;;;;;;21.90;93.90;;;;;;5048414;28;19971;-73
2022/07/23 10:14:50;;;;;;;;;;;22.40;93.20;;;;;;5046147;28;19925;-73
2022/07/23 10:17:16;;;;;;;;;;;22.70;93.30;;;;;;5046513;28;20459;-73
2022/07/23 10:19:42;;;;;;;;;;;22.70;92.50;;;;;;5048301;28;19999;-73
2022/07/23 10:22:09;;;;;;;;;;;22.60;90.90;;;;;;5047576;28;20008;-73
2022/07/23 10:24:38;;;;;;;;;;;22.60;92.00;;;;;;5047285;28;19925;-73
2022/07/23 10:27:15;;;;;;;;;;;22.70;92.20;;;;;;5049272;28;20356;-73
2022/07/23 10:29:47;;;;;;;;;;;23.00;92.10;;;;;;5047594;28;19924;-72
2022/07/23 10:32:31;;;;;;;;;;;23.20;91.70;;;;;;5048258;28;20015;-73
2022/07/23 10:35:12;;;;;;;;;;;23.30;90.80;;;;;;5052121;28;19932;-73
2022/07/23 10:37:47;;;;;;;;;;;23.30;90.10;;;;;;5052167;28;19963;-73
2022/07/23 10:40:17;;;;;;;;;;;23.40;90.10;;;;;;5050956;28;19928;-73
2022/07/23 10:42:44;;;;;;;;;;;23.60;89.80;;;;;;5051518;28;19970;-73
2022/07/23 10:45:21;;;;;;;;;;;23.60;90.10;;;;;;5049977;28;19927;-72
2022/07/23 10:47:48;;;;;;;;;;;23.50;89.60;;;;;;5047877;28;19924;-73
2022/07/23 10:50:34;;;;;;;;;;;23.60;90.90;;;;;;5048400;28;19990;-73
2022/07/23 10:53:06;;;;;;;;;;;23.70;90.10;;;;;;5048582;28;19924;-73
2022/07/23 10:55:31;;;;;;;;;;;23.60;89.70;;;;;;5051276;28;19995;-73
2022/07/23 10:57:57;;;;;;;;;;;23.50;88.80;;;;;;5051243;28;20516;-73
2022/07/23 11:00:24;;;;;;;;;;;23.50;88.60;;;;;;5050585;28;19936;-73
2022/07/23 11:02:50;;;;;;;;;;;23.40;89.40;;;;;;5051033;28;19921;-73
2022/07/23 11:05:17;;;;;;;;;;;23.30;87.30;;;;;;5050978;28;19928;-73
2022/07/23 11:08:01;;;;;;;;;;;23.20;89.50;;;;;;5050863;28;19944;-73
2022/07/23 11:10:36;;;;;;;;;;;23.10;89.40;;;;;;5046499;28;19932;-73
2022/07/23 11:13:20;;;;;;;;;;;23.20;89.80;;;;;;5050870;28;19921;-73
2022/07/23 11:16:01;;;;;;;;;;;23.20;89.20;;;;;;5047877;28;20387;-73
2022/07/23 11:18:39;;;;;;;;;;;23.40;90.00;;;;;;5050680;28;19921;-73
2022/07/23 11:21:29;;;;;;;;;;;23.50;87.30;;;;;;5051844;28;19920;-73
2022/07/23 11:23:58;;;;;;;;;;;23.30;88.40;;;;;;5051521;28;19928;-73
2022/07/23 11:26:42;;;;;;;;;;;23.10;89.10;;;;;;5050947;28;19928;-74
2022/07/23 11:29:25;;;;;;;;;;;23.00;89.60;;;;;;5045923;28;20509;-73
2022/07/23 11:32:02;;;;;;;;;;;22.80;90.00;;;;;;5043009;28;20008;-73
2022/07/23 11:34:28;;;;;;;;;;;22.90;90.20;;;;;;5051594;28;19920;-73
2022/07/23 11:36:53;;;;;;;;;;;22.90;89.70;;;;;;5051599;28;19943;-73
2022/07/23 11:39:20;;;;;;;;;;;22.90;90.20;;;;;;5049679;28;19978;-73
2022/07/23 11:41:45;;;;;;;;;;;23.00;90.60;;;;;;5051037;28;19925;-73
2022/07/23 11:44:27;;;;;;;;;;;22.90;89.30;;;;;;5049627;28;20023;-73
2022/07/23 11:46:59;;;;;;;;;;;22.60;89.70;;;;;;5051328;28;19928;-74
2022/07/23 11:49:25;;;;;;;;;;;22.40;90.30;;;;;;5051483;28;19968;-73
2022/07/23 11:52:06;;;;;;;;;;;22.30;90.90;;;;;;5051164;28;19975;-74
2022/07/23 11:54:32;;;;;;;;;;;22.20;91.20;;;;;;5051022;28;20010;-73
2022/07/23 11:56:58;;;;;;;;;;;22.10;91.60;;;;;;5050262;28;20444;-74
2022/07/23 11:59:25;;;;;;;;;;;22.10;91.70;;;;;;5049005;28;19925;-73
2022/07/23 12:02:01;;;;;;;;;;;22.00;92.30;;;;;;5050989;28;20007;-73
2022/07/23 12:04:38;;;;;;;;;;;22.00;92.20;;;;;;5050827;28;19921;-73
2022/07/23 12:07:03;;;;;;;;;;;22.00;92.30;;;;;;5050645;28;20072;-74
2022/07/23 12:09:29;;;;;;;;;;;22.00;92.40;;;;;;5050461;28;20023;-74
2022/07/23 12:11:58;;;;;;;;;;;21.90;92.20;;;;;;5049854;28;20401;-74
2022/07/23 12:14:24;;;;;;;;;;;21.90;92.20;;;;;;5049095;28;19925;-73
2022/07/23 12:17:10;;;;;;;;;;;22.00;92.00;;;;;;5048695;28;19943;-73
2022/07/23 12:19:36;;;;;;;;;;;22.20;92.10;;;;;;5050406;28;19920;-73
2022/07/23 12:22:02;;;;;;;;;;;22.40;92.50;;;;;;5051013;28;19928;-74
2022/07/23 12:24:27;;;;;;;;;;;22.50;91.60;;;;;;5050122;28;19921;-73
2022/07/23 12:27:12;;;;;;;;;;;22.50;92.30;;;;;;5049487;28;19925;-74
2022/07/23 12:29:37;;;;;;;;;;;22.70;92.60;;;;;;5047955;28;19920;-74
2022/07/23 12:32:16;;;;;;;;;;;23.10;91.60;;;;;;5050464;28;19920;-73
2022/07/23 12:34:42;;;;;;;;;;;23.20;91.50;;;;;;5038860;28;19921;-74
2022/07/23 12:37:07;;;;;;;;;;;23.20;91.60;;;;;;5049042;28;19986;-74
2022/07/23 12:39:33;;;;;;;;;;;23.10;91.40;;;;;;5050567;28;19987;-73
2022/07/23 12:41:58;;;;;;;;;;;23.00;91.20;;;;;;5048979;28;19930;-73
2022/07/23 12:44:25;;;;;;;;;;;22.80;91.00;;;;;;5049687;28;19971;-73
2022/07/23 12:46:53;;;;;;;;;;;22.80;91.10;;;;;;5049934;28;20416;-74
2022/07/23 12:49:25;;;;;;;;;;;22.80;91.80;;;;;;5049660;28;19975;-74
2022/07/23 12:51:51;;;;;;;;;;;22.90;91.70;;;;;;5049966;28;19921;-74
2022/07/23 12:54:16;;;;;;;;;;;23.00;91.60;;;;;;5049567;28;19921;-74
2022/07/23 12:56:44;;;;;;;;;;;23.20;91.80;;;;;;5049649;28;20306;-74
2022/07/23 12:59:11;;;;;;;;;;;23.50;91.50;;;;;;5048698;28;19932;-74
2022/07/23 13:01:38;;;;;;;;;;;23.70;90.60;;;;;;5049994;28;19967;-73
2022/07/23 13:04:08;;;;;;;;;;;23.80;90.90;;;;;;5048774;28;20065;-74
2022/07/23 13:06:35;;;;;;;;;;;23.70;90.90;;;;;;5049534;28;20365;-73
2022/07/23 13:09:02;;;;;;;;;;;23.50;90.80;;;;;;5049809;28;19947;-73
2022/07/23 13:11:27;;;;;;;;;;;23.40;90.70;;;;;;5049641;28;20394;-74
2022/07/23 13:13:53;;;;;;;;;;;23.20;90.70;;;;;;5049994;28;19920;-74
2022/07/23 13:16:18;;;;;;;;;;;23.20;90.90;;;;;;5049379;28;19974;-74
2022/07/23 13:18:44;;;;;;;;;;;23.10;91.00;;;;;;5047935;28;19967;-74
2022/07/23 13:21:09;;;;;;;;;;;23.10;90.90;;;;;;5049395;28;19921;-73
2022/07/23 13:23:35;;;;;;;;;;;23.20;90.90;;;;;;5049259;28;19921;-74
2022/07/23 13:26:01;;;;;;;;;;;23.30;91.10;;;;;;5049870;28;19935;-73
2022/07/23 13:28:26;;;;;;;;;;;23.50;91.40;;;;;;5049337;28;20015;-73
2022/07/23 13:30:52;;;;;;;;;;;23.70;90.40;;;;;;5047565;28;19929;-74
2022/07/23 13:33:19;;;;;;;;;;;23.80;90.20;;;;;;5049680;28;19921;-74
2022/07/23 13:35:45;;;;;;;;;;;23.80;90.80;;;;;;5049116;28;20425;-74
2022/07/23 13:38:11;;;;;;;;;;;24.00;90.70;;;;;;5049757;28;19920;-74
2022/07/23 13:40:42;;;;;;;;;;;24.30;90.90;;;;;;5048989;28;20371;-74
2022/07/23 13:43:11;;;;;;;;;;;24.60;89.60;;;;;;5049469;28;20027;-74
2022/07/23 13:45:37;;;;;;;;;;;24.80;89.10;;;;;;5047041;28;20322;-74
2022/07/23 13:48:03;;;;;;;;;;;24.80;88.20;;;;;;5048861;28;19921;-73
2022/07/23 13:50:29;;;;;;;;;;;24.70;88.80;;;;;;5047306;28;19933;-73
2022/07/23 13:52:55;;;;;;;;;;;24.80;87.50;;;;;;5048605;28;19973;-73
2022/07/23 13:55:20;;;;;;;;;;;24.90;87.90;;;;;;5049476;28;19920;-74
2022/07/23 13:57:46;;;;;;;;;;;24.90;87.80;;;;;;5048216;28;19925;-74
2022/07/23 14:00:11;;;;;;;;;;;25.00;88.00;;;;;;5046585;28;20478;-74
2022/07/23 14:02:38;;;;;;;;;;;25.30;86.70;;;;;;5048299;28;19920;-74
2022/07/23 14:05:08;;;;;;;;;;;25.60;85.40;;;;;;5047848;28;20002;-74
2022/07/23 14:07:34;;;;;;;;;;;25.80;85.70;;;;;;5044571;28;19925;-74
2022/07/23 14:09:59;;;;;;;;;;;26.40;84.40;;;;;;5052117;28;19928;-74
2022/07/23 14:12:25;;;;;;;;;;;26.70;84.30;;;;;;5051769;28;19928;-74
2022/07/23 14:14:51;;;;;;;;;;;26.80;82.90;;;;;;5052348;28;19921;-72